createdAt,value
2019-02-10T00:04:39.922Z,99542.75
2019-02-10T00:09:44.965Z,99545.13
2019-02-10T00:14:50.308Z,99541.18
2019-02-10T00:19:55.658Z,99542.84
2019-02-10T00:25:01.245Z,99537.55
2019-02-10T00:30:06.406Z,99544.39
2019-02-10T00:35:11.844Z,99542.31
2019-02-10T00:40:18.093Z,99538.09
2019-02-10T00:45:23.287Z,99534.89
2019-02-10T00:50:28.720Z,99523.27
2019-02-10T00:55:34.426Z,99522.22
2019-02-10T01:00:40.164Z,99515.09
2019-02-10T01:05:45.772Z,99516.94
2019-02-10T01:10:51.522Z,99523.26
2019-02-10T01:15:58.754Z,99527.20
2019-02-10T01:21:04.202Z,99527.20
2019-02-10T01:26:09.578Z,99518.52
2019-02-10T01:31:17.064Z,99515.64
2019-02-10T01:36:24.451Z,99504.05
2019-02-10T01:41:30.039Z,99503.27
2019-02-10T01:46:36.082Z,99484.52
2019-02-10T01:51:43.935Z,99477.17
2019-02-10T01:56:50.284Z,99479.55
2019-02-10T02:01:57.818Z,99473.50
2019-02-10T02:07:06.412Z,99464.58
2019-02-10T02:12:11.966Z,99456.16
2019-02-10T02:17:19.388Z,99455.13
2019-02-10T02:22:25.952Z,99442.72
2019-02-10T02:27:32.096Z,99437.73
2019-02-10T02:32:39.491Z,99417.45
2019-02-10T02:37:45.735Z,99417.92
2019-02-10T02:42:50.980Z,99403.16
2019-02-10T02:47:59.649Z,99393.74
2019-02-10T02:53:07.710Z,99392.64
2019-02-10T02:58:13.476Z,99382.16
2019-02-10T03:03:18.621Z,99378.77
2019-02-10T03:08:23.681Z,99372.97
2019-02-10T03:13:30.858Z,99354.78
2019-02-10T03:18:38.666Z,99348.73
2019-02-10T03:23:45.447Z,99341.89
2019-02-10T03:28:51.120Z,99329.02
2019-02-10T03:33:57.604Z,99333.73
2019-02-10T03:39:04.793Z,99329.02
2019-02-10T03:44:14.508Z,99323.48
2019-02-10T03:49:20.055Z,99314.26
2019-02-10T03:54:25.869Z,99311.88
2019-02-10T03:59:31.468Z,99290.27
2019-02-10T04:04:43.326Z,99292.68
2019-02-10T04:09:50.395Z,99279.50
2019-02-10T04:14:56.568Z,99260.50
2019-02-10T04:20:03.819Z,99257.62
2019-02-10T04:25:11.568Z,99254.98
2019-02-10T04:30:19.775Z,99242.61
2019-02-10T04:35:28.086Z,99233.00
2019-02-10T04:40:33.396Z,99211.85
2019-02-10T04:45:38.698Z,99192.28
2019-02-10T04:50:44.550Z,99187.50
2019-02-10T04:56:14.330Z,99178.73
2019-02-10T05:01:20.997Z,99170.28
2019-02-10T05:06:26.233Z,99156.80
2019-02-10T05:11:34.538Z,99132.20
2019-02-10T05:16:39.918Z,99129.25
2019-02-10T05:21:45.527Z,99130.20
2019-02-10T05:26:50.678Z,99125.92
2019-02-10T05:31:56.861Z,99116.14
2019-02-10T05:37:02.268Z,99103.94
2019-02-10T05:42:09.170Z,99080.99
2019-02-10T05:47:17.118Z,99070.11
2019-02-10T05:52:22.420Z,99055.95
2019-02-10T05:57:27.530Z,99022.67
2019-02-10T06:02:33.319Z,99011.38
2019-02-10T06:07:39.419Z,99007.09
2019-02-10T06:12:47.130Z,98999.43
2019-02-10T06:17:52.292Z,98988.30
2019-02-10T06:22:57.289Z,98969.85
2019-02-10T06:28:07.169Z,98948.77
2019-02-10T06:33:15.772Z,98933.37
2019-02-10T06:38:22.786Z,98927.69
2019-02-10T06:43:28.388Z,98913.84
2019-02-10T06:48:33.734Z,98899.92
2019-02-10T06:53:39.738Z,98884.62
2019-02-10T06:58:45.592Z,98892.92
2019-02-10T07:03:59.367Z,98882.52
2019-02-10T07:09:07.340Z,98872.17
2019-02-10T07:14:27.394Z,98870.76
2019-02-10T07:20:07.876Z,98858.82
2019-02-10T07:25:47.711Z,98846.31
2019-02-10T07:30:54.047Z,98843.22
2019-02-10T07:36:33.436Z,98829.55
2019-02-10T07:42:03.630Z,98806.42
2019-02-10T07:47:46.184Z,98806.13
2019-02-10T07:53:41.248Z,98785.53
2019-02-10T07:59:22.274Z,98784.94
2019-02-10T08:04:59.929Z,98780.95
2019-02-10T08:11:02.159Z,98752.52
2019-02-10T08:16:47.384Z,98747.31
2019-02-10T08:22:45.540Z,98717.92
2019-02-10T08:28:22.644Z,98714.27
2019-02-10T08:33:53.156Z,98698.46
2019-02-10T08:39:24.505Z,98675.93
2019-02-10T08:45:18.168Z,98659.15
2019-02-10T08:51:04.484Z,98631.45
2019-02-10T08:56:11.284Z,98618.27
2019-02-10T09:01:17.094Z,98592.77
2019-02-10T09:06:27.287Z,98570.14
2019-02-10T09:11:34.880Z,98568.23
2019-02-10T09:16:41.272Z,98544.22
2019-02-10T09:21:46.990Z,98530.98
2019-02-10T09:26:52.972Z,98513.80
2019-02-10T09:31:59.350Z,98502.27
2019-02-10T09:37:04.536Z,98483.60
2019-02-10T09:42:12.754Z,98465.32
2019-02-10T09:47:17.824Z,98460.56
2019-02-10T09:52:23.392Z,98438.37
2019-02-10T09:57:28.515Z,98431.06
2019-02-10T10:02:33.845Z,98412.22
2019-02-10T10:07:38.956Z,98407.93
2019-02-10T10:12:44.314Z,98392.52
2019-02-10T10:17:49.644Z,98380.73
2019-02-10T10:23:00.569Z,98363.84
2019-02-10T10:28:09.398Z,98358.62
2019-02-10T10:33:19.237Z,98341.25
2019-02-10T10:38:27.796Z,98319.55
2019-02-10T10:43:34.382Z,98306.58
2019-02-10T10:48:41.115Z,98286.87
2019-02-10T10:53:52.704Z,98263.19
2019-02-10T10:58:58.221Z,98253.83
2019-02-10T11:04:05.054Z,98234.31
2019-02-10T11:09:10.900Z,98224.54
2019-02-10T11:14:16.651Z,98217.20
2019-02-10T11:19:24.270Z,98202.36
2019-02-10T11:24:30.443Z,98177.67
2019-02-10T11:29:39.734Z,98169.77
2019-02-10T11:34:47.890Z,98161.16
2019-02-10T11:39:56.769Z,98162.05
2019-02-10T11:45:02.378Z,98139.13
2019-02-10T11:50:13.936Z,98132.77
2019-02-10T11:55:22.811Z,98128.16
2019-02-10T12:00:27.729Z,98111.95
2019-02-10T12:05:33.243Z,98100.33
2019-02-10T12:10:39.234Z,98088.30
2019-02-10T12:15:44.735Z,98096.16
2019-02-10T12:20:50.098Z,98074.28
2019-02-10T12:25:56.650Z,98064.89
2019-02-10T12:31:04.942Z,98039.94
2019-02-10T12:36:17.958Z,98035.75
2019-02-10T12:41:30.834Z,98024.25
2019-02-10T12:46:41.196Z,98020.52
2019-02-10T12:51:46.588Z,98003.30
2019-02-10T12:56:53.080Z,97994.77
2019-02-10T13:01:59.134Z,97978.85
2019-02-10T13:07:07.692Z,97968.24
2019-02-10T13:12:12.965Z,97962.61
2019-02-10T13:17:21.668Z,97949.91
2019-02-10T13:22:30.521Z,97944.27
2019-02-10T13:27:36.671Z,97924.16
2019-02-10T13:32:42.360Z,97911.80
2019-02-10T13:37:51.460Z,97901.08
2019-02-10T13:42:57.174Z,97893.99
2019-02-10T13:48:03.160Z,97882.51
2019-02-10T13:53:13.303Z,97882.52
2019-02-10T13:58:23.668Z,97870.43
2019-02-10T14:03:28.970Z,97849.50
2019-02-10T14:08:34.941Z,97853.45
2019-02-10T14:13:41.266Z,97849.88
2019-02-10T14:18:47.949Z,97838.16
2019-02-10T14:23:54.014Z,97834.28
2019-02-10T14:28:59.356Z,97832.61
2019-02-10T14:34:04.847Z,97826.13
2019-02-10T14:39:10.944Z,97822.52
2019-02-10T14:44:17.350Z,97827.39
2019-02-10T14:49:23.128Z,97814.89
2019-02-10T14:54:29.510Z,97807.14
2019-02-10T14:59:34.767Z,97795.45
2019-02-10T15:04:40.062Z,97794.23
2019-02-10T15:09:45.897Z,97792.72
2019-02-10T15:14:51.319Z,97782.22
2019-02-10T15:19:56.535Z,97789.30
2019-02-10T15:25:01.863Z,97770.84
2019-02-10T15:30:08.464Z,97754.27
2019-02-10T15:35:14.076Z,97731.65
2019-02-10T15:40:19.633Z,97739.67
2019-02-10T15:45:26.114Z,97719.66
2019-02-10T15:50:31.321Z,97715.12
2019-02-10T15:55:36.719Z,97692.55
2019-02-10T16:00:41.780Z,97687.50
2019-02-10T16:05:47.291Z,97654.16
2019-02-10T16:10:58.143Z,97651.75
2019-02-10T16:16:00.328Z,97660.09
2019-02-10T16:21:05.524Z,97642.62
2019-02-10T16:26:17.631Z,97642.12
2019-02-10T16:31:22.902Z,97639.91
2019-02-10T16:36:28.789Z,97647.35
2019-02-10T16:41:34.487Z,97666.73
2019-02-10T16:46:43.304Z,97666.86
2019-02-10T16:51:50.660Z,97663.38
2019-02-10T16:56:58.719Z,97661.72
2019-02-10T17:02:07.258Z,97649.27
2019-02-10T17:07:12.937Z,97661.13
2019-02-10T17:12:18.607Z,97651.65
2019-02-10T17:17:24.014Z,97649.66
2019-02-10T17:22:31.245Z,97639.61
2019-02-10T17:27:37.909Z,97639.86
2019-02-10T17:32:45.685Z,97657.09
2019-02-10T17:37:50.838Z,97636.58
2019-02-10T17:43:00.140Z,97645.39
2019-02-10T17:48:06.151Z,97651.05
2019-02-10T17:53:14.897Z,97670.04
2019-02-10T17:58:21.094Z,97679.77
2019-02-10T18:03:29.075Z,97698.09
2019-02-10T18:08:36.073Z,97707.14
2019-02-10T18:13:42.729Z,97717.52
2019-02-10T18:18:54.684Z,97734.73
2019-02-10T18:24:17.891Z,97737.39
2019-02-10T18:29:45.447Z,97747.64
2019-02-10T18:35:06.988Z,97755.94
2019-02-10T18:40:30.369Z,97754.84
2019-02-10T18:46:01.893Z,97753.31
2019-02-10T18:51:33.158Z,97750.19
2019-02-10T18:56:59.718Z,97756.91
2019-02-10T19:02:25.964Z,97759.90
2019-02-10T19:08:09.325Z,97766.53
2019-02-10T19:13:22.331Z,97758.69
2019-02-10T19:18:42.723Z,97757.48
2019-02-10T19:23:57.199Z,97761.88
2019-02-10T19:29:27.641Z,97768.73
2019-02-10T19:34:43.653Z,97783.11
2019-02-10T19:40:07.885Z,97739.70
2019-02-10T19:45:32.880Z,97765.23
2019-02-10T19:51:13.077Z,97768.98
2019-02-10T19:56:42.064Z,97780.90
2019-02-10T20:02:03.593Z,97792.38
2019-02-10T20:07:35.157Z,97805.95
2019-02-10T20:12:56.957Z,97808.36
2019-02-10T20:18:25.502Z,97827.77
2019-02-10T20:23:56.496Z,97829.88
2019-02-10T20:29:29.362Z,97834.82
2019-02-10T20:34:52.089Z,97857.43
2019-02-10T20:40:25.356Z,97883.14
2019-02-10T20:45:42.827Z,97883.94
2019-02-10T20:51:06.637Z,97880.73
2019-02-10T20:56:33.561Z,97898.16
2019-02-10T21:02:01.053Z,97894.07
2019-02-10T21:07:23.813Z,97888.28
2019-02-10T21:12:46.702Z,97890.61
2019-02-10T21:18:01.802Z,97898.62
2019-02-10T21:23:14.741Z,97930.15
2019-02-10T21:28:28.909Z,97953.34
2019-02-10T21:33:54.847Z,97968.20
2019-02-10T21:39:08.775Z,97976.23
2019-02-10T21:44:20.646Z,97977.94
2019-02-10T21:49:27.411Z,97981.63
2019-02-10T21:54:32.919Z,97974.11
2019-02-10T21:59:38.343Z,97971.83
2019-02-10T22:04:43.754Z,97975.34
2019-02-10T22:09:49.340Z,97962.44
2019-02-10T22:14:59.758Z,97976.45
2019-02-10T22:20:06.291Z,97959.13
2019-02-10T22:25:12.048Z,97948.40
2019-02-10T22:30:17.243Z,97944.85
2019-02-10T22:35:22.629Z,97924.92
2019-02-10T22:40:27.756Z,97936.98
2019-02-10T22:45:33.525Z,97929.95
2019-02-10T22:50:38.805Z,97969.64
2019-02-10T22:55:44.029Z,97955.93
2019-02-10T23:00:58.349Z,97963.54
2019-02-10T23:06:04.076Z,97984.62
2019-02-10T23:11:09.190Z,97991.22
2019-02-10T23:16:15.771Z,97988.67
2019-02-10T23:21:24.495Z,98010.38
2019-02-10T23:26:30.717Z,98002.20
2019-02-10T23:31:36.357Z,98014.02
2019-02-10T23:36:41.666Z,98011.84
2019-02-10T23:41:47.959Z,98018.06
2019-02-10T23:46:53.309Z,98018.20
2019-02-10T23:52:00.122Z,98048.20
2019-02-10T23:57:05.556Z,98043.23
